Time;durP1;ratioP1;P1;durP2;ratioP2;P2;SDS_P1;SDS_P2;PMS_P1;PMS_P2;Temp;Humidity;BMP_temperature;BMP_pressure;BME280_temperature;BME280_humidity;BME280_pressure;Samples;Min_cycle;Max_cycle;Signal;HPM_P1;HPM_P2
2022/03/17 09:37:22;;;;;;;14.20;8.40;;;0.20;62.30;;;;;;1923392;74;28559;-50
2022/03/17 09:39:51;;;;;;;7.12;6.05;;;1.10;62.70;;;;;;1884471;76;21097;-51
2022/03/17 09:42:22;;;;;;;4.17;3.77;;;1.10;60.20;;;;;;1884462;76;21090;-51
2022/03/17 09:44:57;;;;;;;4.87;3.77;;;1.00;58.00;;;;;;1884607;75;21093;-50
2022/03/17 09:47:27;;;;;;;6.10;4.20;;;1.00;58.90;;;;;;1882678;76;21042;-50
2022/03/17 09:49:58;;;;;;;6.75;4.33;;;0.80;58.50;;;;;;1884384;75;21699;-51
2022/03/17 09:52:29;;;;;;;9.58;5.25;;;0.70;60.50;;;;;;1884470;76;21074;-52
2022/03/17 09:54:59;;;;;;;14.18;6.00;;;0.60;61.60;;;;;;1884559;76;21093;-55
2022/03/17 09:57:29;;;;;;;9.13;6.08;;;0.70;61.70;;;;;;1884447;75;21087;-49
2022/03/17 09:59:58;;;;;;;9.73;5.08;;;0.70;60.60;;;;;;1884532;76;21085;-54
2022/03/17 10:02:27;;;;;;;9.83;5.67;;;0.80;60.60;;;;;;1884353;76;21023;-52
2022/03/17 10:04:57;;;;;;;4.65;4.05;;;0.80;60.50;;;;;;1884464;75;21078;-48
2022/03/17 10:07:26;;;;;;;4.97;3.80;;;0.80;59.40;;;;;;1884309;75;21062;-50
2022/03/17 10:09:56;;;;;;;5.30;3.52;;;0.80;58.60;;;;;;1884522;75;21027;-54
2022/03/17 10:12:26;;;;;;;6.80;4.92;;;0.70;59.80;;;;;;1884565;76;21039;-55
2022/03/17 10:14:55;;;;;;;18.20;5.80;;;0.70;60.40;;;;;;1884395;76;21026;-54
2022/03/17 10:17:39;;;;;;;4.58;3.02;;;0.70;61.50;;;;;;1884624;76;21034;-49
2022/03/17 10:20:17;;;;;;;5.83;2.95;;;0.70;58.10;;;;;;1884391;76;20998;-50
2022/03/17 10:22:48;;;;;;;9.55;5.70;;;0.60;59.90;;;;;;1884360;76;21523;-53
2022/03/17 10:25:26;;;;;;;18.15;6.00;;;0.60;61.90;;;;;;1884484;75;21025;-54
2022/03/17 10:27:55;;;;;;;7.00;4.87;;;0.70;60.90;;;;;;1884339;76;21031;-48
2022/03/17 10:30:34;;;;;;;4.70;4.15;;;0.90;61.30;;;;;;1884351;76;21011;-54
2022/03/17 10:33:18;;;;;;;13.78;5.12;;;0.90;60.00;;;;;;1883842;76;21002;-52
2022/03/17 10:35:42;;;;;;;8.55;5.47;;;0.90;60.90;;;;;;1882255;75;21042;-52
2022/03/17 10:38:17;;;;;;;7.15;5.22;;;0.90;60.00;;;;;;1857092;77;21159;-53
2022/03/17 10:41:01;;;;;;;6.50;4.85;;;0.90;61.00;;;;;;1857294;76;21061;-56
2022/03/17 10:43:31;;;;;;;4.60;3.50;;;1.00;60.30;;;;;;1857779;76;21076;-49
2022/03/17 10:46:17;;;;;;;7.40;4.92;;;1.00;60.60;;;;;;1857298;76;21092;-52
2022/03/17 10:49:00;;;;;;;6.40;4.78;;;1.00;59.20;;;;;;1857311;76;21009;-53
2022/03/17 10:51:34;;;;;;;3.80;3.27;;;1.00;59.60;;;;;;1856222;76;21033;-50
2022/03/17 10:54:20;;;;;;;7.50;5.70;;;0.90;57.90;;;;;;1857369;77;21541;-52
2022/03/17 10:57:06;;;;;;;12.73;7.85;;;0.90;58.40;;;;;;1857352;76;21041;-47
2022/03/17 10:59:44;;;;;;;5.53;4.20;;;1.00;61.10;;;;;;1857308;77;21100;-48
2022/03/17 11:02:17;;;;;;;5.42;3.58;;;1.10;60.10;;;;;;1857478;77;21033;-47
2022/03/17 11:04:47;;;;;;;5.58;3.77;;;1.10;59.20;;;;;;1857410;76;21072;-51
2022/03/17 11:07:19;;;;;;;3.58;3.27;;;1.00;55.10;;;;;;1857272;77;21080;-50
2022/03/17 11:09:49;;;;;;;5.58;4.25;;;1.00;58.00;;;;;;1857310;76;21095;-48
2022/03/17 11:12:20;;;;;;;9.13;4.97;;;0.90;58.50;;;;;;1857419;77;21069;-47
2022/03/17 11:14:51;;;;;;;7.40;5.75;;;1.00;59.10;;;;;;1857352;76;21498;-54
2022/03/17 11:17:26;;;;;;;5.90;3.77;;;1.20;61.50;;;;;;1856628;77;21111;-48
2022/03/17 11:19:56;;;;;;;7.87;5.17;;;1.30;58.00;;;;;;1857320;76;21127;-46
2022/03/17 11:22:33;;;;;;;6.65;4.67;;;1.40;57.60;;;;;;1857353;76;21521;-48
2022/03/17 11:25:25;;;;;;;9.75;6.00;;;1.30;57.10;;;;;;1855336;77;21556;-49
2022/03/17 11:27:59;;;;;;;10.38;2.27;;;1.30;58.30;;;;;;1794705;79;21135;-47
2022/03/17 11:30:34;;;;;;;4.57;3.77;;;1.20;55.00;;;;;;1845734;76;21084;-46
2022/03/17 11:33:03;;;;;;;4.80;3.00;;;1.00;55.40;;;;;;1856276;76;21549;-47
2022/03/17 11:35:32;;;;;;;4.62;3.27;;;0.90;55.40;;;;;;1857300;76;21080;-48
2022/03/17 11:38:19;;;;;;;7.30;5.08;;;0.80;55.20;;;;;;1850532;77;21115;-47
2022/03/17 11:41:08;;;;;;;10.25;6.35;;;0.80;57.20;;;;;;1848519;77;22070;-49
2022/03/17 11:43:52;;;;;;;6.03;4.60;;;0.90;58.60;;;;;;1848350;77;21021;-49
2022/03/17 11:46:23;;;;;;;9.25;6.30;;;1.00;56.80;;;;;;1848316;76;21045;-55
2022/03/17 11:48:56;;;;;;;5.45;3.92;;;1.20;58.20;;;;;;1848528;76;21116;-49
2022/03/17 11:51:27;;;;;;;3.25;2.95;;;1.40;57.20;;;;;;1848496;76;21088;-51
2022/03/17 11:54:06;;;;;;;5.97;3.22;;;1.50;56.90;;;;;;1848471;77;21068;-50
2022/03/17 11:56:46;;;;;;;10.03;4.20;;;1.40;54.40;;;;;;1848438;76;21038;-52
2022/03/17 11:59:16;;;;;;;7.47;4.25;;;;;;;;;;1848442;76;21116;-55
2022/03/17 12:01:46;;;;;;;8.05;5.17;;;;;;;;;;1848400;76;21077;-55
2022/03/17 12:04:24;;;;;;;6.53;4.45;;;;;;;;;;1848300;76;21029;-56
2022/03/17 12:06:57;;;;;;;7.08;4.83;;;;;;;;;;1848418;77;21045;-52
2022/03/17 12:09:32;;;;;;;6.08;4.85;;;;;;;;;;1846481;76;21088;-54
2022/03/17 12:12:01;;;;;;;8.05;5.75;;;;;;;;;;1848557;76;21159;-52
2022/03/17 12:14:33;;;;;;;6.85;5.08;;;;;;;;;;1848370;77;21104;-51
2022/03/17 12:17:02;;;;;;;6.42;4.90;;;;;;;;;;1848379;76;21636;-52
2022/03/17 12:19:32;;;;;;;5.25;4.20;;;;;;;;;;1845192;77;21124;-54
2022/03/17 12:22:02;;;;;;;11.03;5.75;;;;;;;;;;1848342;77;21086;-52
2022/03/17 12:24:34;;;;;;;6.75;5.12;;;;;;;;;;1848307;77;21101;-50
2022/03/17 12:27:04;;;;;;;8.38;5.87;;;;;;;;;;1848476;76;21045;-48
2022/03/17 12:29:32;;;;;;;5.65;5.00;;;;;;;;;;1848290;76;21073;-50
2022/03/17 12:32:05;;;;;;;4.15;3.45;;;;;;;;;;1848499;76;21111;-54
2022/03/17 12:34:35;;;;;;;9.60;3.60;;;;;;;;;;1847721;76;21150;-47
2022/03/17 12:37:04;;;;;;;6.80;5.15;;;;;;;;;;1846740;76;21111;-48
2022/03/17 12:39:35;;;;;;;3.77;3.12;;;;;;;;;;1836796;77;21050;-48
2022/03/17 12:42:05;;;;;;;6.83;4.65;;;;;;;;;;1836556;76;21077;-48
2022/03/17 12:44:34;;;;;;;5.87;3.52;;;;;;;;;;1835627;77;21093;-51
2022/03/17 12:47:03;;;;;;;5.55;4.25;;;;;;;;;;1836565;76;21109;-49
2022/03/17 12:49:33;;;;;;;11.97;4.85;;;;;;;;;;1836733;77;21471;-49
2022/03/17 12:52:12;;;;;;;6.12;3.50;;;;;;;;;;1836420;76;21089;-52
2022/03/17 12:54:40;;;;;;;7.12;5.20;;;;;;;;;;1836790;78;21073;-53
2022/03/17 12:57:09;;;;;;;4.83;3.60;;;;;;;;;;1836689;78;21074;-53
2022/03/17 12:59:38;;;;;;;6.08;4.17;;;;;;;;;;1836494;77;21038;-50
2022/03/17 13:02:07;;;;;;;11.08;4.65;;;;;;;;;;1836729;76;21105;-52
2022/03/17 13:04:37;;;;;;;10.45;5.53;;;;;;;;;;1836643;78;21042;-53
2022/03/17 13:07:07;;;;;;;8.25;5.72;;;;;;;;;;1836409;78;21022;-50
2022/03/17 13:09:35;;;;;;;5.12;4.00;;;;;;;;;;1836202;77;21105;-49
2022/03/17 13:14:54;;;;;;;9.53;5.60;;;;;;;;;;1836619;78;21073;-48
2022/03/17 13:17:30;;;;;;;11.35;5.42;;;;;;;;;;1836724;77;21070;-50
2022/03/17 13:19:59;;;;;;;9.00;5.78;;;;;;;;;;1832072;78;21100;-49
2022/03/17 13:22:33;;;;;;;5.58;3.45;;;;;;;;;;1836629;77;21104;-50
2022/03/17 13:25:12;;;;;;;6.08;4.12;;;;;;;;;;1836580;77;21503;-52
2022/03/17 13:27:43;;;;;;;9.00;3.92;;;;;;;;;;1836455;76;21089;-53
2022/03/17 13:30:13;;;;;;;5.97;5.08;;;;;;;;;;1836579;78;21057;-50
2022/03/17 13:32:43;;;;;;;7.55;3.95;;;;;;;;;;1836596;76;21026;-54
2022/03/17 13:35:13;;;;;;;5.17;3.62;;;;;;;;;;1836475;76;21033;-52
2022/03/17 13:37:43;;;;;;;7.62;4.95;;;;;;;;;;1836663;77;21187;-51
2022/03/17 13:40:16;;;;;;;6.53;4.30;;;;;;;;;;1836740;76;21042;-50
2022/03/17 13:43:01;;;;;;;8.18;5.08;;;;;;;;;;1836561;78;21546;-49
2022/03/17 13:45:32;;;;;;;7.80;6.37;;;;;;;;;;1836478;76;21018;-48
2022/03/17 13:48:05;;;;;;;12.18;7.62;;;;;;;;;;1836273;76;21094;-49
2022/03/17 13:50:35;;;;;;;8.50;4.95;;;;;;;;;;1835899;76;21089;-48
2022/03/17 13:53:05;;;;;;;6.65;4.95;;;;;;;;;;1836744;78;21039;-49
2022/03/17 13:55:35;;;;;;;5.22;4.25;;;;;;;;;;1836581;78;21058;-49
2022/03/17 13:58:10;;;;;;;8.43;5.37;;;;;;;;;;1836470;76;21082;-50
2022/03/17 14:00:39;;;;;;;5.78;4.70;;;;;;;;;;1836700;76;21073;-53
2022/03/17 14:03:27;;;;;;;7.15;5.20;;;;;;;;;;1836493;77;21038;-48
2022/03/17 14:06:14;;;;;;;9.50;6.08;;;;;;;;;;1836280;76;21034;-49
2022/03/17 14:08:52;;;;;;;6.47;5.10;;;;;;;;;;1836699;76;21427;-48
2022/03/17 14:11:24;;;;;;;8.13;6.20;;;;;;;;;;1836067;78;21026;-53
2022/03/17 14:13:53;;;;;;;8.95;5.30;;;;;;;;;;1836758;78;21066;-50
2022/03/17 14:16:23;;;;;;;16.27;9.23;;;;;;;;;;1836748;78;21058;-52
2022/03/17 14:18:52;;;;;;;8.20;6.70;;;;;;;;;;1836581;76;21030;-53
2022/03/17 14:21:22;;;;;;;9.45;6.62;;;;;;;;;;1836849;77;21062;-52
2022/03/17 14:26:40;;;;;;;14.50;8.95;;;;;;;;;;1836546;77;21112;-49
2022/03/17 14:29:09;;;;;;;19.17;9.68;;;;;;;;;;1836763;76;21432;-50
2022/03/17 14:31:39;;;;;;;11.73;8.20;;;;;;;;;;1836694;78;21018;-52
2022/03/17 14:34:08;;;;;;;7.85;5.30;;;;;;;;;;1837038;76;21022;-57
2022/03/17 14:36:38;;;;;;;16.12;9.33;;;;;;;;;;1837483;78;21103;-58
2022/03/17 14:39:08;;;;;;;9.08;5.67;;;;;;;;;;1836771;76;21128;-58
2022/03/17 14:41:38;;;;;;;5.28;4.30;;;;;;;;;;1837419;77;21046;-58
2022/03/17 14:44:08;;;;;;;43.00;7.20;;;;;;;;;;1837578;76;21088;-58
2022/03/17 14:46:36;;;;;;;10.82;7.22;;;;;;;;;;1837418;77;21100;-58
2022/03/17 14:49:06;;;;;;;10.85;6.55;;;;;;;;;;1837232;77;21164;-59
2022/03/17 14:51:36;;;;;;;10.40;7.55;;;;;;;;;;1837398;76;21475;-59
2022/03/17 14:54:10;;;;;;;10.53;7.72;;;;;;;;;;1837273;77;21049;-59
2022/03/17 14:56:35;;;;;;;13.38;9.45;;;;;;;;;;1835955;77;21054;-59
2022/03/17 14:59:05;;;;;;;11.33;5.95;;;;;;;;;;1837294;77;21018;-59
2022/03/17 15:01:34;;;;;;;10.10;8.55;;;;;;;;;;1837528;76;21050;-59
2022/03/17 15:04:03;;;;;;;13.38;9.20;;;;;;;;;;1837412;78;21089;-59
2022/03/17 15:06:31;;;;;;;10.05;6.90;;;;;;;;;;1837233;76;21038;-59
2022/03/17 15:09:01;;;;;;;12.28;6.12;;;;;;;;;;1837297;78;21104;-59
2022/03/17 15:11:29;;;;;;;16.95;9.55;;;;;;;;;;1837398;78;21034;-58
2022/03/17 15:13:59;;;;;;;11.60;8.25;;;;;;;;;;1837341;77;21099;-58
2022/03/17 15:16:27;;;;;;;11.45;8.63;;;;;;;;;;1837265;76;21034;-58
2022/03/17 15:18:56;;;;;;;10.58;6.58;;;;;;;;;;1837273;77;21163;-58
2022/03/17 15:21:25;;;;;;;10.58;6.53;;;;;;;;;;1837262;77;21030;-58
2022/03/17 15:23:53;;;;;;;9.28;6.92;;;;;;;;;;1837263;77;21034;-58
2022/03/17 15:26:22;;;;;;;8.43;6.00;;;;;;;;;;1837344;76;21104;-58
2022/03/17 15:31:38;;;;;;;7.55;5.65;;;;;;;;;;1837298;76;21116;-58
2022/03/17 15:34:07;;;;;;;8.35;6.08;;;;;;;;;;1837401;78;21034;-58
2022/03/17 15:36:36;;;;;;;9.78;6.45;;;;;;;;;;1837260;76;21010;-58
2022/03/17 15:39:05;;;;;;;7.55;3.87;;;;;;;;;;1837343;76;21058;-58
2022/03/17 15:41:34;;;;;;;11.38;6.65;;;;;;;;;;1837569;78;21085;-58
2022/03/17 15:44:07;;;;;;;8.70;6.72;;;;;;;;;;1837521;77;21167;-58
2022/03/17 15:46:33;;;;;;;10.23;7.53;;;;;;;;;;1836254;76;21026;-58
2022/03/17 15:49:02;;;;;;;7.45;5.67;;;;;;;;;;1837544;76;21038;-58
2022/03/17 15:51:31;;;;;;;7.28;4.37;;;;;;;;;;1837572;77;21050;-58
2022/03/17 15:54:00;;;;;;;13.30;9.18;;;;;;;;;;1837483;78;21104;-58
2022/03/17 15:56:28;;;;;;;8.40;6.20;;;;;;;;;;1837539;78;21038;-58
2022/03/17 15:58:57;;;;;;;4.72;4.20;;;;;;;;;;1837312;77;21113;-58
2022/03/17 16:01:26;;;;;;;9.83;6.65;;;;;;;;;;1837407;76;21030;-58
2022/03/17 16:03:55;;;;;;;6.28;4.50;;;;;;;;;;1837463;78;21112;-58
2022/03/17 16:06:23;;;;;;;4.67;4.22;;;;;;;;;;1837353;78;21139;-58
2022/03/17 16:08:52;;;;;;;8.03;4.47;;;;;;;;;;1837466;78;21042;-58
2022/03/17 16:16:56;;;;;;;8.13;3.45;;;;;;;;;;1837350;78;21049;-58
2022/03/17 16:19:24;;;;;;;12.73;7.58;;;;;;;;;;1837447;78;21034;-58
2022/03/17 16:21:54;;;;;;;5.97;4.87;;;;;;;;;;1837332;76;21132;-58
2022/03/17 16:24:24;;;;;;;9.40;5.92;;;;;;;;;;1837438;76;21066;-58
2022/03/17 16:26:53;;;;;;;13.28;9.63;;;;;;;;;;1837121;78;21159;-58
2022/03/17 16:29:22;;;;;;;6.55;5.95;;;;;;;;;;1837389;76;21058;-58
2022/03/17 16:31:51;;;;;;;5.60;4.62;;;;;;;;;;1837339;77;21110;-58
2022/03/17 16:34:20;;;;;;;16.75;6.75;;;;;;;;;;1837344;76;21096;-58
2022/03/17 16:36:48;;;;;;;9.58;7.20;;;;;;;;;;1837320;78;21054;-58
2022/03/17 16:39:17;;;;;;;9.43;6.42;;;;;;;;;;1839630;77;21065;-58
2022/03/17 16:41:47;;;;;;;11.65;8.23;;;;;;;;;;1849120;77;21045;-58
2022/03/17 16:44:15;;;;;;;5.72;4.97;;;;;;;;;;1849037;77;21124;-58
2022/03/17 16:46:46;;;;;;;9.25;6.35;;;;;;;;;;1849047;77;21042;-58
2022/03/17 16:49:15;;;;;;;15.68;10.45;;;;;;;;;;1849104;77;21009;-58
2022/03/17 16:51:43;;;;;;;10.75;7.30;;;;;;;;;;1833988;78;21082;-58
2022/03/17 16:54:12;;;;;;;15.35;8.85;;;;;;;;;;1884747;75;21088;-58
2022/03/17 16:56:41;;;;;;;11.33;6.60;;;;;;;;;;1884799;75;21104;-58
2022/03/17 16:59:10;;;;;;;8.20;6.25;;;;;;;;;;1884637;76;21046;-58
2022/03/17 17:01:39;;;;;;;12.28;7.95;;;;;;;;;;1884766;76;21047;-58
2022/03/17 17:04:08;;;;;;;7.92;5.67;;;;;;;;;;1884742;75;21112;-58
2022/03/17 17:06:37;;;;;;;9.38;6.20;;;;;;;;;;1884720;76;21027;-58
2022/03/17 17:09:06;;;;;;;11.30;6.53;;;;;;;;;;1884742;76;21046;-58
2022/03/17 17:11:40;;;;;;;10.65;7.78;;;;;;;;;;1884734;76;21108;-58
2022/03/17 17:14:06;;;;;;;9.98;7.17;;;;;;;;;;1883205;75;21030;-58
2022/03/17 17:16:37;;;;;;;11.75;8.13;;;;;;;;;;1884935;76;21006;-58
2022/03/17 17:19:04;;;;;;;9.53;6.40;;;;;;;;;;1884625;76;21492;-58
2022/03/17 17:21:33;;;;;;;16.70;8.75;;;;;;;;;;1884797;75;21161;-58
2022/03/17 17:32:26;;;;;;;8.30;5.90;;;;;;;;;;1884762;76;21054;-58
2022/03/17 17:34:53;;;;;;;7.28;6.03;;;;;;;;;;1884501;76;21551;-58
2022/03/17 17:37:21;;;;;;;13.55;7.78;;;;;;;;;;1884822;76;21034;-58
2022/03/17 17:39:51;;;;;;;6.20;3.45;;;;;;;;;;1886846;76;21123;-58
2022/03/17 17:42:19;;;;;;;11.73;8.50;;;;;;;;;;1894030;76;21022;-58
2022/03/17 17:44:48;;;;;;;10.20;7.00;;;;;;;;;;1894154;76;21015;-58
2022/03/17 17:47:22;;;;;;;9.53;5.62;;;;;;;;;;1893967;75;21022;-58
2022/03/17 17:49:47;;;;;;;12.88;8.70;;;;;;;;;;1892637;75;21484;-58
2022/03/17 17:52:16;;;;;;;9.93;6.35;;;;;;;;;;1894143;75;21018;-58
2022/03/17 17:54:45;;;;;;;9.78;7.80;;;;;;;;;;1894156;75;21046;-58
2022/03/17 17:57:15;;;;;;;12.93;9.05;;;;;;;;;;1894140;75;21081;-58
2022/03/17 17:59:44;;;;;;;8.43;4.78;;;;;;;;;;1894219;76;21135;-58
2022/03/17 18:02:12;;;;;;;16.40;10.10;;;;;;;;;;1894191;74;21006;-58
2022/03/17 18:04:41;;;;;;;23.05;8.53;;;;;;;;;;1894086;76;21050;-58
2022/03/17 18:07:10;;;;;;;17.00;8.95;;;;;;;;;;1894046;76;21042;-58
2022/03/17 18:09:39;;;;;;;16.23;9.13;;;;;;;;;;1894054;76;21080;-58
2022/03/17 18:12:08;;;;;;;4.80;4.03;;;;;;;;;;1894138;76;21021;-58
2022/03/17 18:14:37;;;;;;;14.07;9.48;;;;;;;;;;1894257;76;21038;-58
2022/03/17 18:17:05;;;;;;;13.62;10.00;;;;;;;;;;1894125;76;21026;-58
2022/03/17 18:19:34;;;;;;;9.00;7.75;;;;;;;;;;1894211;76;21053;-58
2022/03/17 18:22:03;;;;;;;6.45;5.08;;;;;;;;;;1894310;75;21038;-58
2022/03/17 18:24:32;;;;;;;6.72;5.08;;;;;;;;;;1894103;76;21104;-57
2022/03/17 18:27:01;;;;;;;13.50;8.93;;;;;;;;;;1894205;75;21038;-58
2022/03/17 18:29:30;;;;;;;10.98;6.33;;;;;;;;;;1894310;76;21010;-58
2022/03/17 18:31:59;;;;;;;9.60;6.83;;;;;;;;;;1894247;75;21022;-58
2022/03/17 18:34:28;;;;;;;12.53;8.78;;;;;;;;;;1894242;76;21100;-58
2022/03/17 18:36:57;;;;;;;14.03;8.28;;;;;;;;;;1894236;76;21100;-58
2022/03/17 18:39:26;;;;;;;4.72;4.20;;;;;;;;;;1894091;75;21046;-58
2022/03/17 18:41:55;;;;;;;4.47;3.45;;;;;;;;;;1875589;75;21100;-58
2022/03/17 18:44:24;;;;;;;8.78;7.03;;;;;;;;;;1872591;77;21152;-58
2022/03/17 18:46:52;;;;;;;5.65;4.45;;;;;;;;;;1872579;77;21023;-58
2022/03/17 18:49:21;;;;;;;8.20;5.37;;;;;;;;;;1872738;77;21019;-58
2022/03/17 18:51:50;;;;;;;10.70;5.92;;;;;;;;;;1872606;77;21039;-58
2022/03/17 18:54:22;;;;;;;11.68;8.88;;;;;;;;;;1872591;75;21074;-58
2022/03/17 18:56:52;;;;;;;13.50;9.40;;;;;;;;;;1872684;77;21047;-58
2022/03/17 18:59:21;;;;;;;14.50;9.45;;;;;;;;;;1872674;75;21024;-58
2022/03/17 19:01:49;;;;;;;13.35;7.72;;;;;;;;;;1872741;77;21089;-58
2022/03/17 19:04:18;;;;;;;15.43;9.80;;;;;;;;;;1872543;77;21023;-58
2022/03/17 19:06:47;;;;;;;11.88;8.35;;;;;;;;;;1872582;77;21101;-58
2022/03/17 19:09:16;;;;;;;15.10;9.45;;;;;;;;;;1872562;77;21031;-58
2022/03/17 19:11:46;;;;;;;11.15;7.37;;;;;;;;;;1872586;75;21023;-58
2022/03/17 19:14:15;;;;;;;9.73;6.17;;;;;;;;;;1872655;77;21117;-58
2022/03/17 19:16:43;;;;;;;10.15;7.80;;;;;;;;;;1872543;77;21035;-58
2022/03/17 19:19:12;;;;;;;16.07;9.58;;;;;;;;;;1872568;77;21042;-58
2022/03/17 19:21:41;;;;;;;16.87;10.70;;;;;;;;;;1872612;77;21043;-59
2022/03/17 19:24:10;;;;;;;14.93;9.70;;;;;;;;;;1872563;77;21168;-58
2022/03/17 19:26:39;;;;;;;9.88;7.58;;;;;;;;;;1872539;76;21113;-58
2022/03/17 19:29:08;;;;;;;8.28;6.85;;;;;;;;;;1872675;77;21039;-58
2022/03/17 19:31:37;;;;;;;15.13;6.60;;;;;;;;;;1872712;75;21023;-58
2022/03/17 19:34:06;;;;;;;15.50;8.75;;;;;;;;;;1872527;77;21035;-58
2022/03/17 19:36:34;;;;;;;17.45;12.58;;;;;;;;;;1872704;76;21066;-58
2022/03/17 19:39:03;;;;;;;17.10;10.13;;;;;;;;;;1872660;77;21111;-58
2022/03/17 19:41:32;;;;;;;19.80;10.63;;;;;;;;;;1883565;75;21158;-58
2022/03/17 19:44:01;;;;;;;19.23;12.25;;;;;;;;;;1894123;76;21034;-58
2022/03/17 19:46:31;;;;;;;6.92;5.10;;;;;;;;;;1894064;75;21022;-58
2022/03/17 19:49:00;;;;;;;14.20;10.28;;;;;;;;;;1894175;76;21030;-58
2022/03/17 19:51:32;;;;;;;11.85;5.37;;;;;;;;;;1894100;76;21026;-58
2022/03/17 19:53:59;;;;;;;11.65;8.83;;;;;;;;;;1894022;75;21487;-58
2022/03/17 19:56:28;;;;;;;9.30;7.20;;;;;;;;;;1894169;76;21042;-58
2022/03/17 19:58:58;;;;;;;8.43;5.75;;;;;;;;;;1894155;76;21104;-58
2022/03/17 20:01:26;;;;;;;14.78;11.28;;;;;;;;;;1894179;76;21030;-58
2022/03/17 20:03:56;;;;;;;10.35;8.10;;;;;;;;;;1894061;76;21116;-58
2022/03/17 20:06:24;;;;;;;13.78;9.15;;;;;;;;;;1894038;76;21066;-58
2022/03/17 20:08:53;;;;;;;19.00;11.25;;;;;;;;;;1893996;76;21030;-58
2022/03/17 20:14:09;;;;;;;18.52;11.63;;;;;;;;;;1894171;76;21101;-58
2022/03/17 20:16:38;;;;;;;10.85;8.15;;;;;;;;;;1894160;74;21006;-58
2022/03/17 20:19:06;;;;;;;13.40;9.90;;;;;;;;;;1894142;76;21144;-58
2022/03/17 20:21:35;;;;;;;21.37;13.00;;;;;;;;;;1894148;74;21018;-57
2022/03/17 20:24:04;;;;;;;8.63;6.78;;;;;;;;;;1894070;74;21050;-58
2022/03/17 20:26:33;;;;;;;13.95;10.50;;;;;;;;;;1894054;76;21026;-58
2022/03/17 20:29:02;;;;;;;15.55;10.18;;;;;;;;;;1894064;76;21050;-58
2022/03/17 20:31:31;;;;;;;10.43;8.35;;;;;;;;;;1894087;76;21068;-58
2022/03/17 20:34:02;;;;;;;11.35;8.15;;;;;;;;;;1894097;76;21010;-58
2022/03/17 20:36:31;;;;;;;9.20;6.30;;;;;;;;;;1894225;74;21030;-58
2022/03/17 20:39:01;;;;;;;12.53;6.15;;;;;;;;;;1894038;76;21038;-58
2022/03/17 20:41:30;;;;;;;15.85;9.10;;;;;;;;;;1894215;75;21117;-58
2022/03/17 20:44:00;;;;;;;6.47;4.85;;;;;;;;;;1894194;76;21018;-58
2022/03/17 20:46:29;;;;;;;11.00;8.73;;;;;;;;;;1894119;76;21554;-58
2022/03/17 20:48:59;;;;;;;15.18;9.83;;;;;;;;;;1894097;75;21050;-58
2022/03/17 20:51:28;;;;;;;16.25;9.88;;;;;;;;;;1894062;76;21460;-58
2022/03/17 20:53:56;;;;;;;20.55;13.62;;;;;;;;;;1894130;76;21030;-58
2022/03/17 20:56:25;;;;;;;13.48;8.65;;;;;;;;;;1894085;76;21155;-58
2022/03/17 20:58:54;;;;;;;14.43;10.20;;;;;;;;;;1894284;76;21030;-58
2022/03/17 21:01:23;;;;;;;17.27;12.70;;;;;;;;;;1894186;76;21096;-58
2022/03/17 21:03:51;;;;;;;15.60;10.40;;;;;;;;;;1894046;76;21038;-58
2022/03/17 21:06:20;;;;;;;10.70;7.50;;;;;;;;;;1894036;76;21109;-58
2022/03/17 21:08:49;;;;;;;24.43;15.28;;;;;;;;;;1894060;75;21038;-58
2022/03/17 21:11:19;;;;;;;17.62;11.38;;;;;;;;;;1894071;76;21018;-58
2022/03/17 21:13:48;;;;;;;21.00;12.70;;;;;;;;;;1894048;76;21171;-58
2022/03/17 21:16:16;;;;;;;21.33;14.38;;;;;;;;;;1894079;76;21108;-58
2022/03/17 21:18:46;;;;;;;19.48;13.75;;;;;;;;;;1893987;76;21086;-58
2022/03/17 21:21:18;;;;;;;19.77;13.60;;;;;;;;;;1894130;75;21053;-58
2022/03/17 21:23:50;;;;;;;20.77;13.13;;;;;;;;;;1894055;76;21112;-58
2022/03/17 21:26:19;;;;;;;26.02;13.58;;;;;;;;;;1894044;76;21038;-58
2022/03/17 21:28:48;;;;;;;24.45;14.50;;;;;;;;;;1894124;76;21030;-58
2022/03/17 21:31:20;;;;;;;23.90;13.85;;;;;;;;;;1894050;75;21025;-58
2022/03/17 21:33:49;;;;;;;22.73;14.23;;;;;;;;;;1894075;75;21100;-58
2022/03/17 21:36:18;;;;;;;23.27;15.85;;;;;;;;;;1893984;76;21046;-58
2022/03/17 21:38:47;;;;;;;20.77;14.03;;;;;;;;;;1893996;74;21042;-58
2022/03/17 21:41:15;;;;;;;18.52;13.55;;;;;;;;;;1893210;75;21034;-56
2022/03/17 21:43:44;;;;;;;20.45;13.53;;;;;;;;;;1872528;77;21036;-58
2022/03/17 21:46:14;;;;;;;9.35;8.28;;;;;;;;;;1872475;77;21035;-58
2022/03/17 21:48:43;;;;;;;20.27;11.57;;;;;;;;;;1872497;77;21054;-58
2022/03/17 21:51:11;;;;;;;19.82;13.15;;;;;;;;;;1872586;77;21121;-58
2022/03/17 21:53:40;;;;;;;22.25;12.88;;;;;;;;;;1872613;77;21039;-58
2022/03/17 21:56:09;;;;;;;12.20;8.55;;;;;;;;;;1872636;77;21019;-58
2022/03/17 21:58:38;;;;;;;12.23;9.30;;;;;;;;;;1872466;77;21039;-58
2022/03/17 22:01:07;;;;;;;7.20;5.28;;;;;;;;;;1872532;77;21116;-58
2022/03/17 22:03:36;;;;;;;20.52;14.45;;;;;;;;;;1872440;75;21108;-58
2022/03/17 22:06:05;;;;;;;17.95;12.23;;;;;;;;;;1872530;75;21058;-58
2022/03/17 22:08:33;;;;;;;21.75;13.90;;;;;;;;;;1872760;77;21043;-58
2022/03/17 22:11:02;;;;;;;21.48;14.58;;;;;;;;;;1872514;77;21192;-58
2022/03/17 22:13:31;;;;;;;11.40;8.70;;;;;;;;;;1872504;77;21046;-58
2022/03/17 22:16:01;;;;;;;19.87;12.23;;;;;;;;;;1872496;77;21023;-58
2022/03/17 22:18:30;;;;;;;23.42;13.95;;;;;;;;;;1872497;77;21104;-58
2022/03/17 22:20:59;;;;;;;18.90;12.78;;;;;;;;;;1872494;76;21047;-58
2022/03/17 22:23:28;;;;;;;21.10;13.78;;;;;;;;;;1872626;77;21129;-58
2022/03/17 22:25:56;;;;;;;21.17;14.98;;;;;;;;;;1872415;77;21047;-58
2022/03/17 22:28:25;;;;;;;22.02;14.85;;;;;;;;;;1872595;77;21086;-58
2022/03/17 22:30:59;;;;;;;21.82;12.82;;;;;;;;;;1872475;77;21113;-58
2022/03/17 22:33:24;;;;;;;20.32;13.25;;;;;;;;;;1871109;77;21489;-57
2022/03/17 22:35:53;;;;;;;13.68;8.78;;;;;;;;;;1872628;77;21051;-58
2022/03/17 22:38:22;;;;;;;18.77;12.40;;;;;;;;;;1872616;75;21047;-58
2022/03/17 22:43:38;;;;;;;22.48;14.43;;;;;;;;;;1890007;75;21613;-57
2022/03/17 22:46:07;;;;;;;6.22;5.40;;;;;;;;;;1894227;76;21018;-58
2022/03/17 22:48:36;;;;;;;20.48;12.05;;;;;;;;;;1894223;75;21081;-58
2022/03/17 22:51:05;;;;;;;16.48;11.83;;;;;;;;;;1894268;76;21071;-58
2022/03/17 22:53:34;;;;;;;16.50;12.43;;;;;;;;;;1894184;75;21030;-58
2022/03/17 22:56:03;;;;;;;17.75;12.18;;;;;;;;;;1894257;76;21149;-58
2022/03/17 22:58:32;;;;;;;15.10;12.00;;;;;;;;;;1894221;76;21081;-57
2022/03/17 23:01:01;;;;;;;14.55;9.03;;;;;;;;;;1894146;76;21108;-57
2022/03/17 23:03:30;;;;;;;22.05;14.13;;;;;;;;;;1894164;75;21100;-57
2022/03/17 23:05:59;;;;;;;20.23;14.45;;;;;;;;;;1894109;76;21046;-57
2022/03/17 23:08:28;;;;;;;17.62;13.40;;;;;;;;;;1894078;76;21109;-57
2022/03/17 23:10:57;;;;;;;18.95;13.40;;;;;;;;;;1894148;76;21038;-57
2022/03/17 23:13:26;;;;;;;15.63;11.43;;;;;;;;;;1894130;76;21089;-57
2022/03/17 23:15:55;;;;;;;14.10;10.15;;;;;;;;;;1894134;76;21108;-57
2022/03/17 23:18:24;;;;;;;11.90;7.53;;;;;;;;;;1894120;76;21038;-57
2022/03/17 23:20:52;;;;;;;11.68;9.80;;;;;;;;;;1894102;75;21038;-57
2022/03/17 23:23:22;;;;;;;20.55;12.45;;;;;;;;;;1894097;76;21104;-57
2022/03/17 23:25:51;;;;;;;12.63;8.40;;;;;;;;;;1894112;76;21019;-57
2022/03/17 23:28:19;;;;;;;23.73;15.70;;;;;;;;;;1894131;76;21058;-57
2022/03/17 23:30:48;;;;;;;17.52;11.88;;;;;;;;;;1894123;76;21034;-57
2022/03/17 23:33:17;;;;;;;16.25;12.07;;;;;;;;;;1894055;74;21050;-57
2022/03/17 23:35:46;;;;;;;22.67;14.40;;;;;;;;;;1894136;76;21152;-57
2022/03/17 23:38:14;;;;;;;21.48;14.35;;;;;;;;;;1894116;74;21042;-57
2022/03/17 23:40:44;;;;;;;21.65;15.68;;;;;;;;;;1894218;75;21087;-57
2022/03/17 23:43:14;;;;;;;17.52;12.05;;;;;;;;;;1894194;76;21124;-57
2022/03/17 23:45:42;;;;;;;13.40;8.83;;;;;;;;;;1894109;76;21101;-57
2022/03/17 23:48:11;;;;;;;12.63;8.28;;;;;;;;;;1894212;75;21100;-57
2022/03/17 23:50:40;;;;;;;7.37;6.50;;;;;;;;;;1894217;75;21042;-57
2022/03/17 23:53:09;;;;;;;11.08;8.43;;;;;;;;;;1894168;76;21112;-57
2022/03/17 23:55:37;;;;;;;27.35;14.38;;;;;;;;;;1894306;76;21022;-57
2022/03/17 23:58:06;;;;;;;14.65;9.30;;;;;;;;;;1894284;76;21077;-57
